Time;durP1;ratioP1;P1;durP2;ratioP2;P2;SDS_P1;SDS_P2;PMS_P1;PMS_P2;Temp;Humidity;BMP_temperature;BMP_pressure;BME280_temperature;BME280_humidity;BME280_pressure;Samples;Min_cycle;Max_cycle;Signal;HPM_P1;HPM_P2
2022/07/19 00:00:09;;;;;;;7.47;5.22;;;18.30;99.90;;;;;;4841147;29;20058;-93
2022/07/19 00:06:26;;;;;;;8.57;5.10;;;18.20;99.90;;;;;;4864382;29;20057;-96
2022/07/19 00:08:52;;;;;;;8.02;4.72;;;18.20;99.90;;;;;;4857572;29;20091;-96
2022/07/19 00:11:18;;;;;;;9.45;6.07;;;18.20;99.90;;;;;;4858757;29;20117;-96
2022/07/19 00:14:14;;;;;;;7.95;4.90;;;18.20;99.90;;;;;;4861971;29;20026;-96
2022/07/19 00:16:53;;;;;;;11.38;4.90;;;17.60;99.90;;;;;;4883379;29;20063;-96
2022/07/19 00:23:54;;;;;;;8.32;4.85;;;18.00;99.90;;;;;;4943493;29;20039;-88
2022/07/19 00:26:20;;;;;;;8.93;6.22;;;18.10;99.90;;;;;;4936126;29;20055;-96
2022/07/19 00:28:46;;;;;;;9.02;4.47;;;17.80;99.90;;;;;;4959696;28;20497;-96
2022/07/19 00:31:17;;;;;;;8.15;4.60;;;18.00;99.90;;;;;;4991162;28;20054;-96
2022/07/19 00:34:01;;;;;;;6.68;4.88;;;17.10;99.90;;;;;;5044365;28;20100;-96
2022/07/19 00:36:29;;;;;;;7.10;5.13;;;18.00;99.90;;;;;;5067869;28;20547;-96
2022/07/19 00:38:56;;;;;;;7.47;4.88;;;18.00;99.90;;;;;;5073003;28;20036;-96
2022/07/19 00:41:22;;;;;;;7.95;4.75;;;17.80;99.90;;;;;;5064855;28;20052;-96
2022/07/19 00:53:47;;;;;;;6.78;4.88;;;17.80;99.90;;;;;;5075525;28;20059;-95
2022/07/19 00:56:13;;;;;;;7.13;4.15;;;17.80;99.90;;;;;;5022740;28;20135;-96
2022/07/19 00:58:40;;;;;;;13.73;5.05;;;16.90;99.90;;;;;;5029918;28;20052;-96
2022/07/19 01:01:08;;;;;;;9.35;5.25;;;17.70;99.90;;;;;;5047830;28;20054;-95
2022/07/19 01:03:39;;;;;;;8.68;5.18;;;17.80;99.90;;;;;;5030449;28;20051;-96
2022/07/19 01:06:07;;;;;;;8.35;5.65;;;18.20;99.90;;;;;;5040124;28;20044;-95
2022/07/19 01:08:33;;;;;;;12.15;4.90;;;17.70;99.90;;;;;;5035989;28;20055;-96
2022/07/19 01:11:02;;;;;;;7.05;4.15;;;17.70;99.90;;;;;;5043157;28;20045;-96
2022/07/19 01:13:27;;;;;;;8.68;5.20;;;17.70;99.90;;;;;;5046001;28;20043;-95
2022/07/19 01:15:53;;;;;;;8.95;5.05;;;17.60;99.90;;;;;;5043724;28;20476;-96
2022/07/19 01:18:20;;;;;;;8.38;5.20;;;17.40;99.90;;;;;;5043966;28;20552;-96
2022/07/19 01:20:45;;;;;;;9.20;4.88;;;17.60;99.90;;;;;;5029964;28;20041;-96
2022/07/19 01:23:13;;;;;;;12.25;4.97;;;17.20;99.90;;;;;;5051185;28;20048;-96
2022/07/19 01:25:55;;;;;;;7.00;4.55;;;16.80;99.90;;;;;;5043774;28;20041;-96
2022/07/19 01:28:49;;;;;;;10.90;5.25;;;17.50;99.90;;;;;;5020193;28;20052;-96
2022/07/19 01:32:06;;;;;;;9.75;5.05;;;17.40;99.90;;;;;;5057830;28;20029;-96
2022/07/19 01:34:33;;;;;;;7.95;5.50;;;16.90;99.90;;;;;;5051045;28;20117;-96
2022/07/19 01:36:58;;;;;;;9.48;5.20;;;17.40;99.90;;;;;;5043650;28;20041;-95
2022/07/19 01:39:26;;;;;;;8.98;4.93;;;17.40;99.90;;;;;;5061891;28;20142;-96
2022/07/19 01:41:55;;;;;;;7.28;4.43;;;16.80;99.90;;;;;;5047058;28;20189;-96
2022/07/19 01:44:22;;;;;;;9.80;6.00;;;16.70;99.90;;;;;;5060148;28;20048;-95
2022/07/19 01:46:48;;;;;;;13.25;6.32;;;17.20;99.90;;;;;;5043763;28;20040;-96
2022/07/19 01:49:14;;;;;;;6.85;4.82;;;17.20;99.90;;;;;;5058241;28;20178;-95
2022/07/19 01:51:40;;;;;;;10.05;4.90;;;17.20;99.90;;;;;;5042424;28;20567;-96
2022/07/19 01:54:07;;;;;;;9.65;4.97;;;17.30;99.90;;;;;;5061797;28;20112;-96
2022/07/19 01:56:33;;;;;;;9.25;5.07;;;17.10;99.90;;;;;;5059283;28;20492;-96
2022/07/19 01:58:59;;;;;;;9.88;4.72;;;17.10;99.90;;;;;;5054554;28;20058;-96
2022/07/19 02:01:25;;;;;;;9.52;4.95;;;17.10;99.90;;;;;;5073589;28;20050;-96
2022/07/19 02:03:50;;;;;;;7.70;4.55;;;17.10;99.90;;;;;;5057400;28;20051;-96
2022/07/19 02:06:16;;;;;;;6.70;4.60;;;17.40;99.90;;;;;;5072184;28;20126;-95
2022/07/19 02:08:42;;;;;;;8.70;4.03;;;17.10;99.90;;;;;;5057947;28;20074;-95
2022/07/19 02:13:53;;;;;;;9.95;4.97;;;17.00;99.90;;;;;;5061171;28;20308;-96
2022/07/19 02:16:19;;;;;;;10.55;4.88;;;16.80;99.90;;;;;;5075971;28;20123;-96
2022/07/19 02:18:45;;;;;;;8.32;5.20;;;17.00;99.90;;;;;;5065639;28;20055;-96
2022/07/19 02:21:18;;;;;;;6.50;4.13;;;17.00;99.90;;;;;;5073644;28;20040;-96
2022/07/19 02:23:44;;;;;;;8.15;5.18;;;17.00;99.90;;;;;;5072046;28;20024;-96
2022/07/19 02:26:20;;;;;;;;;;;17.00;99.90;;;;;;5084839;28;20036;-96
2022/07/19 02:29:05;;;;;;;11.27;5.57;;;17.00;99.90;;;;;;5091833;28;19920;-96
2022/07/19 02:31:32;;;;;;;6.97;4.82;;;17.50;99.90;;;;;;5055980;28;20115;-96
2022/07/19 02:34:10;;;;;;;8.27;4.85;;;17.00;99.90;;;;;;5066159;28;20040;-96
2022/07/19 02:36:42;;;;;;;10.65;5.13;;;16.80;99.90;;;;;;5074517;28;20137;-96
2022/07/19 02:39:33;;;;;;;7.68;4.40;;;17.00;99.90;;;;;;5079062;28;20039;-96
2022/07/19 02:42:10;;;;;;;7.97;5.43;;;17.00;99.90;;;;;;5052076;28;20068;-96
2022/07/19 02:44:56;;;;;;;9.10;5.03;;;17.00;99.90;;;;;;4999808;28;20056;-96
2022/07/19 02:47:26;;;;;;;7.55;4.80;;;16.10;99.90;;;;;;5022375;28;20567;-96
2022/07/19 02:50:01;;;;;;;5.65;4.03;;;16.90;99.90;;;;;;5028181;28;20084;-96
2022/07/19 02:52:29;;;;;;;9.32;4.95;;;16.90;99.90;;;;;;5033367;28;20045;-96
2022/07/19 02:54:55;;;;;;;7.28;4.70;;;16.90;99.90;;;;;;5042736;28;20151;-96
2022/07/19 02:57:21;;;;;;;11.27;5.35;;;16.90;99.90;;;;;;5016630;28;20056;-96
2022/07/19 02:59:47;;;;;;;6.53;5.00;;;16.90;99.90;;;;;;5062483;28;20067;-96
2022/07/19 03:02:12;;;;;;;7.82;4.45;;;16.90;99.90;;;;;;5022726;28;20059;-95
2022/07/19 03:04:38;;;;;;;12.18;4.90;;;16.90;99.90;;;;;;5036743;28;20100;-95
2022/07/19 03:07:04;;;;;;;11.35;5.30;;;16.80;99.90;;;;;;5034322;28;20131;-95
2022/07/19 03:09:30;;;;;;;11.70;4.93;;;16.80;99.90;;;;;;5034647;28;20052;-96
2022/07/19 03:11:55;;;;;;;9.45;5.47;;;16.80;99.90;;;;;;5054957;28;20047;-95
2022/07/19 03:14:21;;;;;;;10.38;5.30;;;17.90;99.90;;;;;;5075184;28;20131;-94
2022/07/19 03:16:47;;;;;;;10.23;5.55;;;16.80;99.90;;;;;;5060006;28;20124;-95
2022/07/19 03:19:13;;;;;;;7.90;4.53;;;16.80;99.90;;;;;;5072121;28;20073;-96
2022/07/19 03:21:38;;;;;;;6.85;4.35;;;16.80;99.90;;;;;;5091219;28;20050;-96
2022/07/19 03:24:04;;;;;;;14.68;6.15;;;17.00;99.90;;;;;;5101637;28;20047;-96
2022/07/19 03:26:30;;;;;;;14.95;5.60;;;16.80;99.90;;;;;;5073606;28;20035;-96
2022/07/19 03:28:56;;;;;;;9.77;5.22;;;16.80;99.90;;;;;;5086296;28;20042;-96
2022/07/19 03:31:21;;;;;;;10.95;5.22;;;16.80;99.90;;;;;;5075901;28;20485;-96
2022/07/19 03:33:49;;;;;;;8.90;5.55;;;16.70;99.90;;;;;;5082783;28;20036;-96
2022/07/19 03:37:16;;;;;;;7.28;4.32;;;16.70;99.90;;;;;;5066624;28;20099;-96
2022/07/19 03:40:45;;;;;;;8.32;4.88;;;16.70;99.90;;;;;;5098108;28;20086;-96
2022/07/19 03:43:26;;;;;;;8.55;5.40;;;16.70;99.90;;;;;;5021521;28;20668;-94
2022/07/19 03:45:51;;;;;;;7.93;5.43;;;16.70;99.90;;;;;;4978682;28;20054;-93
2022/07/19 03:48:17;;;;;;;8.90;5.78;;;16.70;99.90;;;;;;4947126;28;20053;-95
2022/07/19 03:50:43;;;;;;;14.70;5.25;;;16.70;99.90;;;;;;4965070;28;20049;-94
2022/07/19 03:53:09;;;;;;;8.50;5.07;;;16.70;99.90;;;;;;4947423;28;20041;-94
2022/07/19 03:55:35;;;;;;;7.50;4.80;;;16.80;99.90;;;;;;4981086;28;20081;-95
2022/07/19 03:58:00;;;;;;;7.45;5.18;;;16.80;99.90;;;;;;4982896;28;20056;-96
2022/07/19 04:00:26;;;;;;;10.27;5.97;;;17.90;99.90;;;;;;4981232;28;20034;-96
2022/07/19 04:02:55;;;;;;;9.57;5.40;;;16.80;99.90;;;;;;4998780;28;20074;-95
2022/07/19 04:05:21;;;;;;;8.20;5.10;;;16.80;99.90;;;;;;4984907;28;20050;-95
2022/07/19 04:07:47;;;;;;;7.18;4.95;;;16.70;99.90;;;;;;4992982;28;20062;-95
2022/07/19 04:10:13;;;;;;;7.97;4.78;;;16.90;99.90;;;;;;4973594;28;20531;-96
2022/07/19 04:12:47;;;;;;;8.13;5.22;;;16.90;99.90;;;;;;4974877;28;20137;-96
2022/07/19 04:15:16;;;;;;;11.38;4.47;;;16.90;99.90;;;;;;4992513;28;20049;-96
2022/07/19 04:17:45;;;;;;;8.57;6.07;;;16.90;99.90;;;;;;5005599;28;20073;-96
2022/07/19 04:20:11;;;;;;;7.80;4.47;;;16.90;99.90;;;;;;5004094;28;20293;-96
2022/07/19 04:22:37;;;;;;;11.05;5.82;;;17.00;99.90;;;;;;5100342;28;20513;-96
2022/07/19 04:25:03;;;;;;;10.25;5.97;;;17.00;99.90;;;;;;5063926;28;20134;-96
2022/07/19 04:27:30;;;;;;;6.95;5.18;;;17.00;99.90;;;;;;5082213;28;20130;-96
2022/07/19 04:29:56;;;;;;;10.38;5.40;;;17.10;99.90;;;;;;5079478;28;20043;-95
2022/07/19 04:32:22;;;;;;;12.00;5.32;;;17.10;99.90;;;;;;5098248;28;20431;-92
2022/07/19 04:34:49;;;;;;;9.63;6.38;;;17.10;99.90;;;;;;5077880;28;20109;-95
2022/07/19 04:37:15;;;;;;;10.63;6.20;;;17.30;99.90;;;;;;5078561;28;20039;-90
2022/07/19 04:39:41;;;;;;;8.65;5.40;;;17.30;99.90;;;;;;5077401;28;20047;-93
2022/07/19 04:42:07;;;;;;;11.00;5.82;;;17.50;99.90;;;;;;5076259;28;20096;-88
2022/07/19 04:44:33;;;;;;;10.13;6.18;;;17.40;99.90;;;;;;5094177;28;20122;-89
2022/07/19 04:46:59;;;;;;;9.15;5.35;;;18.20;99.90;;;;;;5092727;28;20039;-90
2022/07/19 04:49:25;;;;;;;10.85;4.88;;;17.50;99.90;;;;;;5079300;28;20035;-90
2022/07/19 04:51:51;;;;;;;7.68;5.35;;;17.60;99.90;;;;;;5063070;28;20073;-90
2022/07/19 04:54:17;;;;;;;10.10;6.13;;;17.70;99.90;;;;;;5061541;28;20040;-89
2022/07/19 04:56:43;;;;;;;12.38;5.88;;;17.80;99.90;;;;;;5077947;28;20047;-94
2022/07/19 04:59:09;;;;;;;7.80;5.65;;;17.00;99.90;;;;;;5076872;28;20326;-88
2022/07/19 05:01:35;;;;;;;11.50;6.32;;;18.00;99.90;;;;;;5078250;28;20124;-88
2022/07/19 05:04:00;;;;;;;11.60;6.10;;;18.10;99.90;;;;;;5061984;28;20047;-90
2022/07/19 05:06:26;;;;;;;14.25;5.90;;;18.30;99.90;;;;;;5097153;28;20177;-87
2022/07/19 05:08:52;;;;;;;10.25;6.13;;;18.40;99.90;;;;;;5112912;28;20197;-89
2022/07/19 05:11:24;;;;;;;9.85;6.53;;;18.60;99.90;;;;;;5111945;28;20446;-89
2022/07/19 05:13:50;;;;;;;9.57;5.55;;;18.80;99.90;;;;;;5076080;28;20100;-91
2022/07/19 05:16:15;;;;;;;14.75;5.80;;;18.90;99.90;;;;;;5094494;28;20130;-91
2022/07/19 05:18:41;;;;;;;15.48;5.45;;;19.10;99.90;;;;;;5060829;28;20104;-90
2022/07/19 05:21:07;;;;;;;8.40;5.43;;;19.20;99.90;;;;;;5080149;28;20044;-94
2022/07/19 05:23:36;;;;;;;9.27;5.03;;;19.30;99.90;;;;;;5064920;28;20040;-95
2022/07/19 05:26:02;;;;;;;9.65;5.07;;;19.10;99.90;;;;;;5096545;28;20050;-92
2022/07/19 05:28:28;;;;;;;8.25;5.38;;;18.80;99.90;;;;;;5080887;28;20035;-94
2022/07/19 05:30:56;;;;;;;8.00;5.35;;;19.70;99.90;;;;;;5082873;28;20395;-96
2022/07/19 05:33:23;;;;;;;9.73;5.72;;;19.10;99.90;;;;;;5100967;28;20537;-96
2022/07/19 05:35:49;;;;;;;9.77;5.55;;;19.80;99.90;;;;;;5064078;28;20047;-96
2022/07/19 05:38:21;;;;;;;8.88;5.32;;;19.90;99.90;;;;;;5094747;28;20089;-96
2022/07/19 05:40:47;;;;;;;10.25;5.60;;;19.90;99.90;;;;;;5100626;28;20135;-93
2022/07/19 05:43:15;;;;;;;8.05;4.85;;;20.10;99.90;;;;;;5107158;28;20392;-96
2022/07/19 05:45:44;;;;;;;8.05;4.60;;;20.10;99.90;;;;;;5115935;28;20075;-95
2022/07/19 05:48:10;;;;;;;9.75;5.20;;;20.20;99.90;;;;;;5090459;28;20046;-93
2022/07/19 05:50:35;;;;;;;9.00;4.90;;;20.40;99.90;;;;;;5074052;28;20080;-90
2022/07/19 05:53:01;;;;;;;11.43;5.00;;;20.50;99.90;;;;;;5070952;28;20071;-92
2022/07/19 05:55:27;;;;;;;6.50;4.70;;;20.60;99.90;;;;;;5072530;28;20126;-92
2022/07/19 05:57:52;;;;;;;10.48;4.60;;;20.70;99.90;;;;;;5053852;28;20490;-93
2022/07/19 06:00:18;;;;;;;8.52;5.05;;;20.80;99.90;;;;;;5055925;28;20032;-91
2022/07/19 06:02:44;;;;;;;7.72;4.55;;;20.90;99.90;;;;;;5054694;28;20163;-92
2022/07/19 06:05:09;;;;;;;9.70;4.63;;;21.00;99.90;;;;;;5055902;28;20054;-92
2022/07/19 06:07:35;;;;;;;11.35;4.07;;;21.10;99.90;;;;;;5071135;28;20044;-93
2022/07/19 06:10:01;;;;;;;8.85;4.40;;;21.20;99.90;;;;;;5071663;28;20039;-92
2022/07/19 06:12:27;;;;;;;9.27;4.38;;;21.30;99.90;;;;;;5072800;28;20725;-93
2022/07/19 06:14:53;;;;;;;11.48;4.28;;;21.40;99.90;;;;;;5071389;28;20040;-93
2022/07/19 06:17:19;;;;;;;7.32;4.00;;;21.50;99.90;;;;;;5055465;28;20035;-92
2022/07/19 06:19:44;;;;;;;11.50;4.80;;;21.60;99.90;;;;;;5087727;28;20084;-93
2022/07/19 06:22:10;;;;;;;13.65;4.00;;;21.70;99.90;;;;;;5056229;28;20134;-93
2022/07/19 06:24:36;;;;;;;7.72;4.22;;;21.80;99.90;;;;;;5055366;28;20036;-93
2022/07/19 06:27:02;;;;;;;9.48;4.47;;;21.90;99.90;;;;;;5056070;28;20040;-93
2022/07/19 06:29:27;;;;;;;11.60;4.63;;;22.10;99.90;;;;;;5057339;28;20043;-93
2022/07/19 06:31:53;;;;;;;13.80;5.18;;;22.20;99.90;;;;;;5072746;28;20410;-93
2022/07/19 06:34:19;;;;;;;15.68;4.47;;;22.30;99.90;;;;;;5072291;28;20048;-93
2022/07/19 06:36:44;;;;;;;7.57;4.63;;;22.40;99.90;;;;;;5054793;28;20051;-94
2022/07/19 06:39:10;;;;;;;11.63;4.10;;;22.50;99.90;;;;;;5055730;28;20474;-94
2022/07/19 06:41:36;;;;;;;10.05;4.40;;;22.60;99.90;;;;;;5088469;28;20035;-95
2022/07/19 06:44:02;;;;;;;8.90;3.05;;;22.70;99.90;;;;;;5058943;28;20184;-94
2022/07/19 06:46:27;;;;;;;7.45;3.50;;;22.90;99.90;;;;;;5064596;28;20079;-95
2022/07/19 06:48:53;;;;;;;10.55;3.53;;;23.00;99.90;;;;;;5072907;28;20035;-95
2022/07/19 06:51:19;;;;;;;9.25;4.03;;;23.10;99.90;;;;;;5072798;28;20039;-95
2022/07/19 06:53:44;;;;;;;8.02;3.10;;;23.20;99.90;;;;;;5053682;28;20513;-94
2022/07/19 06:56:10;;;;;;;10.98;4.18;;;23.40;99.90;;;;;;5071458;28;20561;-94
2022/07/19 06:58:36;;;;;;;7.30;3.55;;;23.50;99.90;;;;;;5053714;28;20044;-94
2022/07/19 07:01:03;;;;;;;7.63;3.60;;;23.60;99.90;;;;;;5087955;28;20046;-94
2022/07/19 07:03:28;;;;;;;5.30;3.65;;;23.70;99.90;;;;;;5087499;28;20259;-93
2022/07/19 07:05:54;;;;;;;8.77;4.20;;;23.80;99.90;;;;;;5088139;28;20054;-91
2022/07/19 07:08:20;;;;;;;7.95;4.22;;;24.00;99.90;;;;;;5071967;28;20127;-93
2022/07/19 07:10:46;;;;;;;6.85;4.22;;;24.10;99.90;;;;;;5070369;28;20054;-92
2022/07/19 07:13:12;;;;;;;4.95;3.97;;;24.20;99.90;;;;;;5071448;28;20051;-93
2022/07/19 07:15:38;;;;;;;6.35;3.83;;;24.30;99.90;;;;;;5069865;28;20044;-93
2022/07/19 07:18:04;;;;;;;6.45;3.40;;;24.40;99.90;;;;;;5054856;28;20084;-93
2022/07/19 07:20:29;;;;;;;7.30;3.83;;;24.50;99.90;;;;;;5053778;28;20047;-92
2022/07/19 07:22:55;;;;;;;7.57;3.40;;;24.60;99.90;;;;;;5070949;28;20043;-93
2022/07/19 07:25:21;;;;;;;7.70;3.53;;;24.60;99.90;;;;;;5054358;28;20039;-93
2022/07/19 07:27:47;;;;;;;8.52;3.47;;;24.70;99.90;;;;;;5070428;28;20044;-93
2022/07/19 07:30:12;;;;;;;8.25;3.45;;;24.80;99.90;;;;;;5054832;28;20051;-93
2022/07/19 07:32:38;;;;;;;9.05;3.80;;;24.80;99.90;;;;;;5053571;28;20040;-93
2022/07/19 07:35:04;;;;;;;4.60;3.25;;;24.90;99.90;;;;;;5070756;28;20503;-94
2022/07/19 07:37:31;;;;;;;4.78;2.33;;;25.00;99.90;;;;;;5087319;28;20039;-93
2022/07/19 07:39:57;;;;;;;6.30;2.75;;;25.10;99.90;;;;;;5057899;28;20043;-92
2022/07/19 07:42:24;;;;;;;5.07;2.70;;;25.20;99.90;;;;;;5073960;28;20107;-93
2022/07/19 07:44:51;;;;;;;5.80;3.03;;;25.40;99.90;;;;;;5073808;28;20501;-92
2022/07/19 07:47:17;;;;;;;7.88;3.03;;;25.40;99.90;;;;;;5091851;28;20040;-93
2022/07/19 07:49:42;;;;;;;5.65;2.45;;;25.40;99.90;;;;;;5072974;28;20043;-93
2022/07/19 07:52:08;;;;;;;5.55;3.08;;;25.60;99.90;;;;;;5074789;28;20046;-93
2022/07/19 07:54:38;;;;;;;4.20;2.67;;;25.80;99.90;;;;;;5073298;28;20079;-93
2022/07/19 07:57:04;;;;;;;5.45;3.17;;;25.80;99.90;;;;;;5074947;28;20039;-93
2022/07/19 07:59:29;;;;;;;5.50;2.97;;;26.00;99.90;;;;;;5065038;28;20042;-92
2022/07/19 08:01:58;;;;;;;5.22;2.40;;;26.10;99.80;;;;;;5098563;28;20122;-93
2022/07/19 08:04:24;;;;;;;9.80;3.95;;;26.20;99.30;;;;;;5065803;28;20156;-93
2022/07/19 08:06:50;;;;;;;6.95;3.13;;;26.20;98.80;;;;;;5064086;28;20047;-94
2022/07/19 08:09:16;;;;;;;6.90;3.08;;;26.30;98.40;;;;;;5082668;28;20038;-94
2022/07/19 08:11:47;;;;;;;5.47;2.97;;;26.40;98.60;;;;;;5082950;28;20075;-92
2022/07/19 08:14:16;;;;;;;6.90;3.50;;;26.50;98.60;;;;;;5116127;28;20044;-93
2022/07/19 08:16:42;;;;;;;3.83;2.35;;;26.60;98.30;;;;;;5080847;28;20131;-93
2022/07/19 08:19:08;;;;;;;4.55;2.78;;;26.70;98.10;;;;;;5098368;28;20621;-93
2022/07/19 08:21:34;;;;;;;8.10;2.42;;;26.80;97.80;;;;;;5080955;28;20035;-93
2022/07/19 08:24:00;;;;;;;4.00;2.50;;;26.90;97.70;;;;;;5064043;28;20051;-93
2022/07/19 08:26:26;;;;;;;4.63;2.58;;;27.00;97.50;;;;;;5064834;28;20503;-92
2022/07/19 08:28:52;;;;;;;5.75;2.70;;;27.10;97.40;;;;;;5079799;28;20143;-93
2022/07/19 08:31:18;;;;;;;5.43;2.33;;;27.30;97.10;;;;;;5081063;28;20206;-92
2022/07/19 08:33:44;;;;;;;3.08;2.05;;;27.40;96.10;;;;;;5099058;28;20050;-93
2022/07/19 08:36:10;;;;;;;3.95;2.53;;;27.50;96.00;;;;;;5115547;28;20047;-93
2022/07/19 08:38:38;;;;;;;5.20;2.55;;;27.60;95.20;;;;;;5099191;28;20047;-93
2022/07/19 08:41:05;;;;;;;5.95;2.22;;;27.80;95.40;;;;;;5099049;28;20055;-94
2022/07/19 08:43:32;;;;;;;3.40;2.55;;;27.90;95.40;;;;;;5099421;28;20040;-93
2022/07/19 08:46:03;;;;;;;2.17;1.80;;;28.10;95.00;;;;;;5082463;28;20065;-93
2022/07/19 08:48:36;;;;;;;3.40;2.13;;;28.20;94.60;;;;;;5081831;28;20093;-93
2022/07/19 08:51:04;;;;;;;5.22;2.17;;;28.30;93.80;;;;;;5098743;28;20079;-93
2022/07/19 08:53:32;;;;;;;8.20;2.35;;;28.40;92.00;;;;;;5082356;28;20106;-93
2022/07/19 08:55:59;;;;;;;8.88;2.25;;;28.50;90.90;;;;;;5099435;28;20127;-94
2022/07/19 08:58:25;;;;;;;6.72;2.53;;;28.60;88.80;;;;;;5065109;28;20507;-93
2022/07/19 09:00:51;;;;;;;3.92;1.88;;;28.70;87.50;;;;;;5081796;28;20176;-93
2022/07/19 09:03:17;;;;;;;4.05;1.95;;;28.80;85.10;;;;;;5081014;28;20099;-93
2022/07/19 09:05:43;;;;;;;10.27;2.95;;;28.90;83.90;;;;;;5098714;28;20073;-94
2022/07/19 09:08:17;;;;;;;4.40;1.88;;;29.00;83.50;;;;;;5082527;28;20032;-94
2022/07/19 09:11:14;;;;;;;2.63;1.70;;;29.00;80.20;;;;;;5097788;28;20063;-93
2022/07/19 09:13:34;;;;;;;6.53;1.80;;;29.20;80.60;;;;;;5101521;28;20074;-93
2022/07/19 09:16:00;;;;;;;4.07;2.13;;;29.30;79.30;;;;;;5097498;28;20035;-93
2022/07/19 09:18:32;;;;;;;6.50;2.20;;;29.40;77.30;;;;;;5064595;28;20046;-93
2022/07/19 09:21:09;;;;;;;5.55;2.10;;;29.50;77.20;;;;;;5098213;28;20130;-94
2022/07/19 09:23:40;;;;;;;5.97;2.13;;;29.60;76.00;;;;;;5081759;28;20047;-95
2022/07/19 09:26:06;;;;;;;3.70;1.73;;;30.00;76.60;;;;;;5115865;28;20100;-95
2022/07/19 09:28:34;;;;;;;7.22;1.70;;;29.80;75.60;;;;;;5080833;28;20059;-94
2022/07/19 09:31:02;;;;;;;3.90;1.80;;;30.50;74.90;;;;;;5056720;28;20035;-94
2022/07/19 09:33:30;;;;;;;3.00;1.58;;;30.00;73.60;;;;;;5088290;28;20124;-94
2022/07/19 09:35:59;;;;;;;3.30;1.88;;;29.20;70.70;;;;;;5088956;28;20074;-93
2022/07/19 09:38:35;;;;;;;3.10;1.20;;;30.20;70.40;;;;;;5088736;28;20040;-95
2022/07/19 09:41:14;;;;;;;6.03;1.67;;;30.30;69.20;;;;;;5088391;28;20044;-95
2022/07/19 09:43:59;;;;;;;8.13;2.88;;;30.40;69.40;;;;;;5089415;28;20039;-94
2022/07/19 09:46:28;;;;;;;6.63;1.88;;;30.50;69.70;;;;;;5088585;28;20047;-95
2022/07/19 09:48:54;;;;;;;2.72;1.67;;;30.60;68.00;;;;;;5088567;28;20046;-94
2022/07/19 09:51:21;;;;;;;6.05;1.52;;;30.60;68.00;;;;;;5071907;28;20436;-94
2022/07/19 09:53:48;;;;;;;2.83;1.40;;;30.70;67.80;;;;;;5071463;28;20044;-94
2022/07/19 09:56:15;;;;;;;2.95;1.45;;;30.80;66.00;;;;;;5055752;28;20043;-94
2022/07/19 09:58:42;;;;;;;5.28;1.70;;;30.80;65.00;;;;;;5055311;28;20166;-95
2022/07/19 10:01:09;;;;;;;4.32;1.92;;;30.90;64.20;;;;;;5088807;28;20534;-93
2022/07/19 10:03:35;;;;;;;2.15;1.30;;;31.00;63.50;;;;;;5087894;28;20039;-94
2022/07/19 10:06:01;;;;;;;3.22;1.17;;;31.10;62.50;;;;;;5072264;28;20425;-93
2022/07/19 10:08:27;;;;;;;2.60;1.45;;;31.20;61.70;;;;;;5070749;28;20039;-94
2022/07/19 10:10:53;;;;;;;2.67;1.40;;;31.30;61.10;;;;;;5071746;28;20039;-94
2022/07/19 10:13:19;;;;;;;3.88;1.45;;;31.30;61.10;;;;;;5055324;28;20039;-93
2022/07/19 10:15:48;;;;;;;4.00;1.50;;;31.40;60.20;;;;;;5070857;28;20107;-93
2022/07/19 10:18:20;;;;;;;3.70;1.50;;;31.50;58.50;;;;;;5089201;28;20134;-94
2022/07/19 10:20:47;;;;;;;3.40;1.30;;;31.50;58.90;;;;;;5087599;28;20043;-94
2022/07/19 10:23:13;;;;;;;5.05;1.60;;;31.60;59.10;;;;;;5071455;28;20339;-93
2022/07/19 10:25:42;;;;;;;4.40;1.60;;;31.60;58.10;;;;;;5087347;28;20285;-94
2022/07/19 10:28:32;;;;;;;4.47;2.03;;;31.70;57.60;;;;;;5088768;28;20127;-93
2022/07/19 10:30:58;;;;;;;9.70;1.55;;;31.80;56.10;;;;;;5090120;28;20469;-94
2022/07/19 10:33:28;;;;;;;4.05;1.60;;;31.90;57.00;;;;;;5074153;28;20087;-94
2022/07/19 10:35:53;;;;;;;5.85;1.58;;;32.00;56.60;;;;;;5096654;28;20050;-94
2022/07/19 10:38:19;;;;;;;3.08;1.33;;;32.00;56.80;;;;;;5078568;28;20097;-93
2022/07/19 10:40:58;;;;;;;9.93;1.45;;;32.10;56.00;;;;;;5096902;28;20051;-93
2022/07/19 10:43:25;;;;;;;2.58;1.50;;;32.30;56.30;;;;;;5095066;28;20133;-94
2022/07/19 10:45:56;;;;;;;3.42;1.45;;;32.30;55.60;;;;;;5109757;28;20435;-93
2022/07/19 10:48:42;;;;;;;2.30;1.13;;;32.30;55.30;;;;;;5097308;28;20047;-93
2022/07/19 10:51:26;;;;;;;2.95;1.55;;;32.50;54.70;;;;;;5090949;28;20047;-94
2022/07/19 10:54:01;;;;;;;1.67;1.25;;;32.60;54.80;;;;;;5092422;28;20050;-94
2022/07/19 10:56:31;;;;;;;3.08;1.00;;;32.70;56.10;;;;;;5091371;28;20126;-92
2022/07/19 10:59:05;;;;;;;9.23;1.42;;;32.70;54.70;;;;;;5090813;28;20046;-94
2022/07/19 11:01:33;;;;;;;2.35;1.27;;;32.80;53.20;;;;;;5092105;28;20054;-93
2022/07/19 11:04:25;;;;;;;3.53;1.50;;;32.80;53.20;;;;;;5073633;28;20043;-94
2022/07/19 11:06:51;;;;;;;;;;;32.90;52.40;;;;;;5091664;28;20051;-93
2022/07/19 11:09:17;;;;;;;2.72;1.58;;;33.00;54.00;;;;;;5074713;28;20019;-93
2022/07/19 11:11:43;;;;;;;4.45;1.10;;;33.10;53.40;;;;;;5075097;27;20521;-95
2022/07/19 11:14:09;;;;;;;14.48;1.38;;;33.20;52.70;;;;;;5078621;27;20047;-92
2022/07/19 11:16:34;;;;;;;4.22;0.98;;;33.20;51.80;;;;;;5060939;27;20050;-93
2022/07/19 11:19:08;;;;;;;11.55;1.42;;;33.30;51.50;;;;;;5095227;27;20039;-94
2022/07/19 11:21:36;;;;;;;2.83;1.63;;;33.40;51.20;;;;;;5094658;27;20429;-94
2022/07/19 11:24:03;;;;;;;3.10;1.08;;;33.50;51.10;;;;;;5094848;27;20047;-94
2022/07/19 11:26:39;;;;;;;2.58;1.20;;;33.50;51.40;;;;;;5061538;27;20039;-93
2022/07/19 11:29:05;;;;;;;2.92;1.40;;;33.70;50.40;;;;;;5077699;27;20088;-94
2022/07/19 11:31:31;;;;;;;2.83;1.08;;;33.80;50.60;;;;;;5078498;27;20057;-93
2022/07/19 11:34:00;;;;;;;2.47;1.33;;;33.90;50.00;;;;;;5076776;27;20545;-93
2022/07/19 11:36:27;;;;;;;1.55;1.10;;;34.00;49.10;;;;;;5061682;27;20047;-93
2022/07/19 11:39:00;;;;;;;3.58;1.15;;;34.00;48.80;;;;;;5094442;27;20217;-93
2022/07/19 11:41:31;;;;;;;2.20;0.90;;;34.00;47.80;;;;;;5078094;27;20107;-94
2022/07/19 11:44:03;;;;;;;3.13;1.30;;;34.00;47.30;;;;;;5095941;27;20043;-93
2022/07/19 11:46:34;;;;;;;5.00;1.20;;;34.10;48.20;;;;;;5094300;27;20047;-93
2022/07/19 11:49:02;;;;;;;4.07;0.88;;;34.10;47.60;;;;;;5096243;27;20054;-93
2022/07/19 11:51:28;;;;;;;8.48;1.45;;;34.20;47.40;;;;;;5080421;27;20039;-95
2022/07/19 11:53:57;;;;;;;4.20;1.15;;;34.20;46.80;;;;;;5081094;27;20054;-95
2022/07/19 11:56:25;;;;;;;3.25;1.00;;;34.40;46.20;;;;;;5097603;27;20128;-93
2022/07/19 11:58:52;;;;;;;4.75;0.98;;;34.40;47.60;;;;;;5080709;27;20039;-93
2022/07/19 12:01:39;;;;;;;3.45;1.15;;;34.60;47.10;;;;;;5082061;27;20087;-93
2022/07/19 12:04:10;;;;;;;5.07;1.55;;;34.60;45.10;;;;;;5097738;27;20035;-93
2022/07/19 12:06:47;;;;;;;2.22;1.30;;;34.70;45.70;;;;;;5081587;27;20560;-94
2022/07/19 12:09:20;;;;;;;2.28;0.95;;;34.80;44.60;;;;;;5114233;27;20039;-93
2022/07/19 12:11:49;;;;;;;1.95;1.20;;;34.80;43.60;;;;;;5098356;27;20039;-93
2022/07/19 12:14:30;;;;;;;2.45;1.10;;;34.90;44.70;;;;;;5098048;27;20476;-93
2022/07/19 12:17:16;;;;;;;1.48;0.90;;;34.90;44.00;;;;;;5096800;27;20058;-94
2022/07/19 12:19:47;;;;;;;2.45;1.20;;;35.00;42.30;;;;;;5096250;27;20046;-93
2022/07/19 12:22:29;;;;;;;3.33;1.33;;;35.00;44.10;;;;;;5078086;27;20043;-94
2022/07/19 12:24:54;;;;;;;;;;;35.00;44.30;;;;;;5078594;27;20049;-93
2022/07/19 12:27:20;;;;;;;4.80;1.20;;;35.00;44.00;;;;;;5078501;27;19927;-94
2022/07/19 12:29:49;;;;;;;4.00;1.40;;;35.00;44.60;;;;;;5078021;27;20095;-93
2022/07/19 12:32:27;;;;;;;4.28;1.20;;;35.00;43.70;;;;;;5078415;27;20046;-93
2022/07/19 12:35:01;;;;;;;6.75;1.23;;;35.10;43.30;;;;;;5093410;27;20498;-94
2022/07/19 12:37:31;;;;;;;2.25;1.30;;;35.30;44.00;;;;;;5087653;27;20145;-93
2022/07/19 12:40:05;;;;;;;12.27;1.08;;;35.40;43.80;;;;;;5094538;27;20047;-93
2022/07/19 12:42:47;;;;;;;3.75;1.25;;;35.40;42.90;;;;;;5097048;27;20043;-93
2022/07/19 12:45:22;;;;;;;2.22;0.85;;;35.40;42.30;;;;;;5107646;27;20061;-94
2022/07/19 12:47:50;;;;;;;3.67;1.00;;;35.50;44.50;;;;;;5110494;27;20051;-94
2022/07/19 12:50:31;;;;;;;5.78;1.65;;;35.60;43.80;;;;;;5079055;27;20122;-95
2022/07/19 12:53:00;;;;;;;1.90;1.15;;;35.70;42.70;;;;;;5094890;27;20433;-94
2022/07/19 12:55:28;;;;;;;3.33;1.33;;;35.70;43.20;;;;;;5094856;27;20107;-94
2022/07/19 12:57:55;;;;;;;8.00;3.00;;;35.70;43.30;;;;;;5094763;27;20079;-93
2022/07/19 13:00:23;;;;;;;2.25;1.15;;;35.80;43.20;;;;;;5077281;27;20080;-91
2022/07/19 13:02:50;;;;;;;6.03;1.40;;;35.90;43.00;;;;;;5095945;27;20502;-93
2022/07/19 13:05:16;;;;;;;5.57;1.33;;;36.00;43.20;;;;;;5077689;27;20035;-93
2022/07/19 13:07:42;;;;;;;5.65;0.98;;;36.10;43.40;;;;;;5078247;27;20696;-93
2022/07/19 13:10:09;;;;;;;4.57;1.50;;;36.20;42.60;;;;;;5076967;27;20043;-92
2022/07/19 13:12:35;;;;;;;2.97;1.15;;;36.20;42.30;;;;;;5095583;27;20390;-93
2022/07/19 13:15:01;;;;;;;2.50;0.90;;;36.20;42.50;;;;;;5077928;27;20130;-94